Time;durP1;ratioP1;P1;durP2;ratioP2;P2;SDS_P1;SDS_P2;PMS_P1;PMS_P2;Temp;Humidity;BMP_temperature;BMP_pressure;BME280_temperature;BME280_humidity;BME280_pressure;Samples;Min_cycle;Max_cycle;Signal;HPM_P1;HPM_P2
2021/12/09 00:00:30;;;;;;;45.10;41.70;;;4.70;99.90;;;;;;5079336;28;20443;-74
2021/12/09 00:02:57;;;;;;;45.97;42.50;;;4.80;99.90;;;;;;5079796;28;20473;-73
2021/12/09 00:05:24;;;;;;;46.27;43.03;;;4.90;99.90;;;;;;5081285;28;20434;-73
2021/12/09 00:07:53;;;;;;;47.30;43.90;;;4.90;99.90;;;;;;5080315;28;20853;-74
2021/12/09 00:10:20;;;;;;;46.67;42.77;;;5.00;99.90;;;;;;5079456;28;20454;-73
2021/12/09 00:12:47;;;;;;;45.40;41.70;;;5.10;99.90;;;;;;5080853;28;20460;-74
2021/12/09 00:15:14;;;;;;;42.10;39.00;;;5.20;99.90;;;;;;5080337;28;20491;-74
2021/12/09 00:17:41;;;;;;;38.60;36.00;;;5.10;99.90;;;;;;5078792;28;20562;-74
2021/12/09 00:20:10;;;;;;;40.57;37.53;;;5.20;99.90;;;;;;5080769;28;20453;-74
2021/12/09 00:22:37;;;;;;;38.97;36.37;;;5.20;99.90;;;;;;5080567;28;20471;-73
2021/12/09 00:25:06;;;;;;;36.77;34.37;;;5.20;99.90;;;;;;5078328;28;20440;-74
2021/12/09 00:27:33;;;;;;;35.03;32.87;;;5.20;99.90;;;;;;5079874;28;20954;-74
2021/12/09 00:29:59;;;;;;;34.33;32.27;;;5.30;99.90;;;;;;5080895;28;20457;-74
2021/12/09 00:32:26;;;;;;;34.20;32.20;;;5.30;99.90;;;;;;5079042;28;20443;-75
2021/12/09 00:34:53;;;;;;;34.20;32.37;;;5.30;99.90;;;;;;5081918;28;20486;-76
2021/12/09 00:37:25;;;;;;;34.53;32.63;;;5.30;99.90;;;;;;5078782;28;21011;-74
2021/12/09 00:39:53;;;;;;;35.93;33.40;;;5.20;99.90;;;;;;5080112;28;20518;-74
2021/12/09 00:42:22;;;;;;;35.67;33.40;;;5.10;99.90;;;;;;5080634;28;20447;-74
2021/12/09 00:44:50;;;;;;;34.67;32.57;;;5.20;99.90;;;;;;5077400;28;20448;-73
2021/12/09 00:47:17;;;;;;;35.53;33.17;;;5.20;99.90;;;;;;5081306;28;20560;-74
2021/12/09 00:49:44;;;;;;;35.90;33.80;;;5.20;99.90;;;;;;5078691;28;20440;-74
2021/12/09 00:52:12;;;;;;;34.43;32.60;;;5.20;99.90;;;;;;5079942;28;20446;-74
2021/12/09 00:54:41;;;;;;;34.60;32.70;;;5.10;99.90;;;;;;5080576;28;20486;-74
2021/12/09 00:57:08;;;;;;;35.87;33.50;;;5.00;99.90;;;;;;5076661;28;20542;-74
2021/12/09 00:59:36;;;;;;;35.33;33.30;;;5.00;99.90;;;;;;5079138;28;20438;-74
2021/12/09 01:02:03;;;;;;;37.47;34.97;;;5.10;99.90;;;;;;5080597;28;20443;-74
2021/12/09 01:04:30;;;;;;;36.57;34.00;;;5.10;99.90;;;;;;5079314;28;20444;-74
2021/12/09 01:06:57;;;;;;;37.23;34.73;;;5.10;99.90;;;;;;5081386;28;20888;-73
2021/12/09 01:09:24;;;;;;;37.07;34.93;;;5.10;99.90;;;;;;5078558;28;20443;-73
2021/12/09 01:11:51;;;;;;;38.47;36.10;;;5.10;99.90;;;;;;5079921;28;20447;-72
2021/12/09 01:14:18;;;;;;;36.77;34.67;;;5.10;99.90;;;;;;5080158;28;20482;-72
2021/12/09 01:16:46;;;;;;;37.10;34.53;;;5.20;99.90;;;;;;5078315;28;20452;-73
2021/12/09 01:19:13;;;;;;;38.13;35.27;;;5.20;99.90;;;;;;5079368;28;20961;-73
2021/12/09 01:21:39;;;;;;;38.80;35.50;;;5.20;99.90;;;;;;5081279;28;20440;-74
2021/12/09 01:24:06;;;;;;;38.27;35.70;;;5.20;99.90;;;;;;5085296;28;20474;-72
2021/12/09 01:26:33;;;;;;;37.30;34.83;;;5.20;99.90;;;;;;5096928;28;20446;-72
2021/12/09 01:29:04;;;;;;;36.80;34.50;;;5.20;99.90;;;;;;5096083;28;20440;-73
2021/12/09 01:31:33;;;;;;;37.47;34.97;;;5.30;99.90;;;;;;5082774;28;20454;-73
2021/12/09 01:34:03;;;;;;;36.33;34.13;;;5.30;99.90;;;;;;5080397;28;20450;-74
2021/12/09 01:36:30;;;;;;;37.37;34.77;;;5.30;99.90;;;;;;5083329;28;20855;-72
2021/12/09 01:38:57;;;;;;;37.70;35.03;;;5.40;99.90;;;;;;5083562;28;20456;-73
2021/12/09 01:41:24;;;;;;;37.27;34.93;;;5.40;99.90;;;;;;5082096;28;20456;-72
2021/12/09 01:43:51;;;;;;;37.10;34.70;;;5.40;99.90;;;;;;5083084;28;20448;-72
2021/12/09 01:46:20;;;;;;;37.80;35.13;;;5.30;99.90;;;;;;5083424;28;20471;-73
2021/12/09 01:48:48;;;;;;;37.80;35.37;;;5.40;99.90;;;;;;5061816;28;21065;-73
2021/12/09 01:51:18;;;;;;;37.50;34.87;;;5.30;99.90;;;;;;5075455;28;20456;-73
2021/12/09 01:53:45;;;;;;;37.23;34.43;;;5.30;99.90;;;;;;5075200;28;20951;-73
2021/12/09 01:56:14;;;;;;;37.87;34.87;;;5.30;99.90;;;;;;5077917;28;20477;-74
2021/12/09 01:58:41;;;;;;;38.33;35.63;;;5.30;99.90;;;;;;5077807;28;20481;-73
2021/12/09 02:01:08;;;;;;;38.77;36.00;;;5.10;99.90;;;;;;5077997;28;20444;-73
2021/12/09 02:03:36;;;;;;;37.93;35.43;;;5.10;99.90;;;;;;5074861;28;20861;-72
2021/12/09 02:06:03;;;;;;;38.07;35.60;;;4.90;99.90;;;;;;5071655;28;20431;-73
2021/12/09 02:08:31;;;;;;;37.77;35.20;;;5.00;99.90;;;;;;5067120;28;20439;-73
2021/12/09 02:10:58;;;;;;;37.63;35.10;;;5.00;99.90;;;;;;5071895;28;20443;-74
2021/12/09 02:13:26;;;;;;;37.40;34.80;;;5.10;99.90;;;;;;5068925;28;20812;-74
2021/12/09 02:15:54;;;;;;;36.20;33.90;;;5.00;99.90;;;;;;5067335;28;20482;-74
2021/12/09 02:18:21;;;;;;;38.27;35.63;;;4.80;99.90;;;;;;5066405;28;20449;-73
2021/12/09 02:21:05;;;;;;;38.70;35.63;;;4.80;99.90;;;;;;5070199;28;20441;-72
2021/12/09 02:23:32;;;;;;;36.60;34.00;;;4.70;99.90;;;;;;5069989;28;20506;-72
2021/12/09 02:25:59;;;;;;;36.73;34.30;;;4.70;99.90;;;;;;5071703;28;20446;-72
2021/12/09 02:28:27;;;;;;;36.47;34.07;;;4.70;99.90;;;;;;5072172;28;20862;-72
2021/12/09 02:30:54;;;;;;;36.67;34.47;;;4.70;99.90;;;;;;5071002;28;20827;-72
2021/12/09 02:33:21;;;;;;;35.70;33.60;;;4.60;99.90;;;;;;5069782;28;20441;-72
2021/12/09 02:35:49;;;;;;;35.30;33.10;;;4.60;99.90;;;;;;5066452;28;20817;-73
2021/12/09 02:38:16;;;;;;;34.90;32.90;;;4.60;99.90;;;;;;5067254;28;20452;-71
2021/12/09 02:40:43;;;;;;;34.97;32.37;;;4.60;99.90;;;;;;5068845;28;20436;-71
2021/12/09 02:43:10;;;;;;;36.20;33.30;;;4.60;99.90;;;;;;5071760;28;20450;-72
2021/12/09 02:45:37;;;;;;;36.20;33.47;;;4.50;99.90;;;;;;5066727;28;20487;-72
2021/12/09 02:48:03;;;;;;;34.07;31.97;;;4.60;99.90;;;;;;5067250;28;20530;-72
2021/12/09 02:50:30;;;;;;;34.57;32.60;;;4.50;99.90;;;;;;5069656;28;20472;-72
2021/12/09 02:52:58;;;;;;;34.97;32.80;;;4.50;99.90;;;;;;5072324;28;20451;-76
2021/12/09 02:55:25;;;;;;;35.90;33.70;;;4.60;99.90;;;;;;5061697;28;20823;-77
2021/12/09 02:57:52;;;;;;;36.70;34.20;;;4.70;99.90;;;;;;5061631;28;20452;-75
2021/12/09 03:00:20;;;;;;;37.13;34.73;;;4.70;99.90;;;;;;5067894;28;20491;-72
2021/12/09 03:02:47;;;;;;;37.47;34.97;;;4.80;99.90;;;;;;5071838;28;20454;-72
2021/12/09 03:05:14;;;;;;;38.90;36.20;;;4.70;99.90;;;;;;5071719;28;20449;-71
2021/12/09 03:07:42;;;;;;;38.30;35.90;;;4.80;99.90;;;;;;5071792;28;20459;-72
2021/12/09 03:10:18;;;;;;;39.93;37.23;;;4.90;99.90;;;;;;5071853;28;20818;-71
2021/12/09 03:12:46;;;;;;;36.50;34.00;;;4.90;99.90;;;;;;5071258;28;20464;-71
2021/12/09 03:15:13;;;;;;;38.87;36.17;;;4.90;99.90;;;;;;5069280;28;20474;-73
2021/12/09 03:17:40;;;;;;;38.00;35.50;;;4.90;99.90;;;;;;5071567;28;20443;-72
2021/12/09 03:20:08;;;;;;;36.80;34.50;;;4.90;99.90;;;;;;5071591;28;20829;-72
2021/12/09 03:22:35;;;;;;;39.83;36.33;;;5.00;99.90;;;;;;5071164;28;20525;-72
2021/12/09 03:25:02;;;;;;;39.23;36.20;;;5.10;99.90;;;;;;5071059;28;20444;-72
2021/12/09 03:27:30;;;;;;;39.57;36.67;;;5.10;99.90;;;;;;5071366;28;20459;-72
2021/12/09 03:29:57;;;;;;;39.33;36.30;;;5.10;99.90;;;;;;5071287;28;20454;-72
2021/12/09 03:32:24;;;;;;;37.77;35.00;;;5.10;99.90;;;;;;5071250;28;20822;-72
2021/12/09 03:34:51;;;;;;;37.37;35.00;;;5.10;99.90;;;;;;5071213;28;20479;-72
2021/12/09 03:37:20;;;;;;;36.77;34.20;;;5.10;99.90;;;;;;5070985;28;20462;-73
2021/12/09 03:39:48;;;;;;;38.83;35.80;;;5.10;99.90;;;;;;5071108;28;20453;-71
2021/12/09 03:42:17;;;;;;;38.10;34.87;;;5.10;99.90;;;;;;5071302;28;20453;-71
2021/12/09 03:44:47;;;;;;;37.80;35.07;;;5.10;99.90;;;;;;5070809;28;20440;-71
2021/12/09 03:47:16;;;;;;;37.30;34.73;;;5.10;99.90;;;;;;5088896;28;20523;-71
2021/12/09 03:49:43;;;;;;;36.77;33.90;;;5.10;99.90;;;;;;5091341;28;20457;-73
2021/12/09 03:52:11;;;;;;;38.07;34.80;;;5.10;99.90;;;;;;5091267;28;20450;-72
2021/12/09 03:54:38;;;;;;;36.23;33.37;;;5.20;99.90;;;;;;5091082;28;20453;-72
2021/12/09 03:57:06;;;;;;;36.00;33.77;;;5.20;99.90;;;;;;5091093;28;20482;-70
2021/12/09 03:59:34;;;;;;;36.83;33.43;;;5.10;99.90;;;;;;5091249;28;20448;-72
2021/12/09 04:02:02;;;;;;;36.77;34.03;;;5.20;99.90;;;;;;5090730;28;20448;-71
2021/12/09 04:04:29;;;;;;;36.10;33.50;;;5.10;99.90;;;;;;5091100;28;20450;-71
2021/12/09 04:06:56;;;;;;;37.30;34.30;;;5.10;99.90;;;;;;5090816;28;21053;-71
2021/12/09 04:09:23;;;;;;;36.10;33.90;;;5.10;99.90;;;;;;5090969;28;20457;-71
2021/12/09 04:11:51;;;;;;;36.53;33.60;;;5.10;99.90;;;;;;5091104;28;20455;-71
2021/12/09 04:14:19;;;;;;;35.53;33.20;;;5.10;99.90;;;;;;5090714;28;20455;-71
2021/12/09 04:16:46;;;;;;;34.63;32.30;;;5.20;99.90;;;;;;5090466;28;20573;-71
2021/12/09 04:19:15;;;;;;;36.63;33.97;;;5.10;99.90;;;;;;5090731;28;20450;-72
2021/12/09 04:21:43;;;;;;;35.87;33.00;;;5.10;99.90;;;;;;5091010;28;20451;-72
2021/12/09 04:24:11;;;;;;;34.10;32.03;;;5.10;99.90;;;;;;5090523;28;20485;-71
2021/12/09 04:26:39;;;;;;;34.03;31.97;;;5.00;99.90;;;;;;5090675;28;20708;-71
2021/12/09 04:29:07;;;;;;;34.93;32.13;;;5.00;99.90;;;;;;5090717;28;20449;-71
2021/12/09 04:31:34;;;;;;;33.90;31.80;;;5.00;99.90;;;;;;5090443;28;20443;-71
2021/12/09 04:34:01;;;;;;;34.13;31.83;;;5.00;99.90;;;;;;5090648;28;20940;-71
2021/12/09 04:36:29;;;;;;;35.10;32.77;;;4.90;99.90;;;;;;5090521;28;20474;-71
2021/12/09 04:38:56;;;;;;;33.47;31.30;;;5.00;99.90;;;;;;5090643;28;20661;-70
2021/12/09 04:41:23;;;;;;;34.37;32.20;;;4.90;99.90;;;;;;5090474;28;20446;-71
2021/12/09 04:43:50;;;;;;;33.63;31.40;;;4.90;99.90;;;;;;5090626;28;20504;-71
2021/12/09 04:46:17;;;;;;;34.27;31.97;;;4.90;99.90;;;;;;5090333;28;20474;-70
2021/12/09 04:48:45;;;;;;;33.57;30.97;;;4.90;99.90;;;;;;5090417;28;20474;-70
2021/12/09 04:51:12;;;;;;;32.77;30.67;;;5.00;99.90;;;;;;5090650;28;20445;-71
2021/12/09 04:53:40;;;;;;;33.80;31.40;;;5.00;99.90;;;;;;5090381;28;20442;-69
2021/12/09 04:56:07;;;;;;;34.10;31.77;;;5.00;99.90;;;;;;5090429;28;20487;-69
2021/12/09 04:58:34;;;;;;;33.57;31.23;;;5.10;99.90;;;;;;5090226;28;20461;-69
2021/12/09 05:01:04;;;;;;;34.00;31.60;;;5.10;99.90;;;;;;5090303;28;20465;-69
2021/12/09 05:03:31;;;;;;;32.33;30.33;;;5.10;99.90;;;;;;5090608;28;20767;-69
2021/12/09 05:05:59;;;;;;;31.53;29.43;;;5.10;99.90;;;;;;5090217;28;20446;-70
2021/12/09 05:08:31;;;;;;;31.20;29.30;;;5.10;99.90;;;;;;5090224;28;20458;-70
2021/12/09 05:11:06;;;;;;;31.53;29.50;;;5.20;99.90;;;;;;5092962;28;20507;-70
2021/12/09 05:13:35;;;;;;;29.90;28.23;;;5.30;99.90;;;;;;5094432;28;20504;-70
2021/12/09 05:16:03;;;;;;;31.07;28.70;;;5.20;99.90;;;;;;5094415;28;20834;-71
2021/12/09 05:18:32;;;;;;;30.93;28.57;;;5.20;99.90;;;;;;5094450;28;20462;-69
2021/12/09 05:21:00;;;;;;;27.90;26.00;;;5.30;99.90;;;;;;5093913;28;20553;-70
2021/12/09 05:23:27;;;;;;;27.97;26.33;;;5.30;99.90;;;;;;5093807;28;20617;-70
2021/12/09 05:25:54;;;;;;;28.20;26.70;;;5.20;99.90;;;;;;5094051;28;20442;-70
2021/12/09 05:28:30;;;;;;;28.67;26.77;;;5.20;99.90;;;;;;5093997;28;20456;-69
2021/12/09 05:33:42;;;;;;;26.30;24.60;;;5.20;99.90;;;;;;5093675;28;20443;-69
2021/12/09 05:36:10;;;;;;;25.10;23.70;;;5.30;99.90;;;;;;5093686;28;20571;-69
2021/12/09 05:38:36;;;;;;;25.77;24.17;;;5.30;99.90;;;;;;5093774;28;20459;-70
2021/12/09 05:41:04;;;;;;;24.10;22.50;;;5.30;99.90;;;;;;5093983;28;20503;-70
2021/12/09 05:43:32;;;;;;;25.70;24.10;;;5.30;99.90;;;;;;5093603;28;20454;-69
2021/12/09 05:45:59;;;;;;;25.53;23.73;;;5.30;99.90;;;;;;5085555;28;20483;-70
2021/12/09 05:48:26;;;;;;;26.03;24.10;;;5.40;99.90;;;;;;5072819;28;20446;-70
2021/12/09 05:50:54;;;;;;;26.57;24.87;;;5.40;99.90;;;;;;5073530;28;20458;-70
2021/12/09 05:53:20;;;;;;;25.60;23.40;;;5.40;99.90;;;;;;5073566;28;20448;-70
2021/12/09 05:55:48;;;;;;;24.23;22.63;;;5.40;99.90;;;;;;5073384;28;20530;-70
2021/12/09 05:58:16;;;;;;;26.33;24.20;;;5.40;99.90;;;;;;5085006;28;20978;-70
2021/12/09 06:00:45;;;;;;;24.40;22.73;;;5.50;99.90;;;;;;5092548;28;20447;-71
2021/12/09 06:03:12;;;;;;;24.33;22.33;;;5.40;99.90;;;;;;5091835;28;20444;-70
2021/12/09 06:05:39;;;;;;;22.90;21.13;;;5.40;99.90;;;;;;5080106;28;20811;-71
2021/12/09 06:08:06;;;;;;;24.90;22.83;;;5.30;99.90;;;;;;5072772;28;20443;-70
2021/12/09 06:10:34;;;;;;;21.33;19.97;;;5.40;99.90;;;;;;5072651;28;20450;-70
2021/12/09 06:13:01;;;;;;;20.73;19.50;;;5.30;99.90;;;;;;5072850;28;20950;-71
2021/12/09 06:15:28;;;;;;;20.67;18.87;;;5.20;99.90;;;;;;5072686;28;20853;-69
2021/12/09 06:17:56;;;;;;;19.80;18.20;;;5.20;99.90;;;;;;5072687;28;20455;-70
2021/12/09 06:20:24;;;;;;;19.83;18.63;;;5.10;99.90;;;;;;5072898;28;20451;-73
2021/12/09 06:22:51;;;;;;;20.33;18.93;;;5.10;99.90;;;;;;5070956;28;20835;-72
2021/12/09 06:25:19;;;;;;;20.07;18.80;;;5.10;99.90;;;;;;5072413;28;20480;-73
2021/12/09 06:27:46;;;;;;;19.93;18.70;;;5.00;99.90;;;;;;5072609;28;20540;-71
2021/12/09 06:30:14;;;;;;;19.20;18.23;;;5.00;99.90;;;;;;5072476;28;20482;-69
2021/12/09 06:32:41;;;;;;;19.80;18.47;;;4.90;99.90;;;;;;5072170;28;20852;-69
2021/12/09 06:35:10;;;;;;;17.83;16.43;;;4.80;99.90;;;;;;5072302;28;20455;-69
2021/12/09 06:37:40;;;;;;;23.83;18.43;;;4.80;99.90;;;;;;5072467;28;20483;-69
2021/12/09 06:40:08;;;;;;;19.23;17.87;;;4.80;99.90;;;;;;5072850;28;20544;-69
2021/12/09 06:42:35;;;;;;;19.00;17.10;;;4.90;99.90;;;;;;5072360;28;20828;-69
2021/12/09 06:45:03;;;;;;;19.23;18.03;;;4.90;99.90;;;;;;5071892;28;20452;-70
2021/12/09 06:47:29;;;;;;;18.07;16.77;;;4.90;99.90;;;;;;5052172;28;20939;-69
2021/12/09 06:49:57;;;;;;;17.63;16.30;;;4.90;99.90;;;;;;5052543;28;20448;-69
2021/12/09 06:52:25;;;;;;;19.87;18.03;;;4.90;99.90;;;;;;5052179;28;20453;-70
2021/12/09 06:54:51;;;;;;;18.80;16.33;;;4.90;99.90;;;;;;5051910;28;20495;-70
2021/12/09 06:57:18;;;;;;;19.30;17.87;;;4.90;99.90;;;;;;5051822;28;20489;-71
2021/12/09 06:59:45;;;;;;;19.13;17.70;;;4.90;99.90;;;;;;5052142;28;20472;-68
2021/12/09 07:02:11;;;;;;;19.20;17.77;;;4.90;99.90;;;;;;5051749;28;20460;-70
2021/12/09 07:04:38;;;;;;;19.37;18.03;;;5.00;99.90;;;;;;5051728;28;20456;-69
2021/12/09 07:07:05;;;;;;;17.50;16.50;;;4.90;99.90;;;;;;5051639;28;20961;-69
2021/12/09 07:09:33;;;;;;;18.60;17.40;;;4.90;99.90;;;;;;5051493;28;20444;-69
2021/12/09 07:12:00;;;;;;;18.60;17.10;;;4.90;99.90;;;;;;5051692;28;20455;-69
2021/12/09 07:14:27;;;;;;;17.97;16.83;;;4.90;99.90;;;;;;5051415;28;20443;-70
2021/12/09 07:16:53;;;;;;;17.13;16.10;;;4.90;99.90;;;;;;5051330;28;20985;-69
2021/12/09 07:19:20;;;;;;;17.43;16.30;;;4.90;99.90;;;;;;5051455;28;20449;-69
2021/12/09 07:21:47;;;;;;;16.93;15.80;;;5.00;99.90;;;;;;5051413;28;20452;-70
2021/12/09 07:24:14;;;;;;;15.93;14.90;;;5.00;99.90;;;;;;5050788;28;20476;-69
2021/12/09 07:26:42;;;;;;;16.20;15.30;;;5.00;99.90;;;;;;5051391;28;20499;-69
2021/12/09 07:29:09;;;;;;;17.77;16.57;;;5.00;99.90;;;;;;5051315;28;20455;-69
2021/12/09 07:31:36;;;;;;;15.70;14.77;;;5.10;99.90;;;;;;5051172;28;20453;-70
2021/12/09 07:34:02;;;;;;;18.00;16.40;;;5.10;99.90;;;;;;5050936;28;20448;-69
2021/12/09 07:36:29;;;;;;;17.67;16.40;;;5.20;99.90;;;;;;5051002;28;20843;-70
2021/12/09 07:38:56;;;;;;;16.87;16.00;;;5.30;99.90;;;;;;5050959;28;20584;-70
2021/12/09 07:41:24;;;;;;;17.17;16.07;;;5.40;99.90;;;;;;5051032;28;20475;-70
2021/12/09 07:43:52;;;;;;;18.10;16.70;;;5.40;99.90;;;;;;5050841;28;20463;-70
2021/12/09 07:46:19;;;;;;;16.67;15.77;;;5.50;99.90;;;;;;5071301;28;20474;-70
2021/12/09 07:48:46;;;;;;;15.73;14.73;;;5.60;99.90;;;;;;5091455;28;20459;-70
2021/12/09 07:51:13;;;;;;;16.67;15.60;;;5.60;99.90;;;;;;5091088;28;20979;-70
2021/12/09 07:53:39;;;;;;;16.90;15.70;;;5.70;99.90;;;;;;5091232;28;20450;-70
2021/12/09 07:56:06;;;;;;;16.83;15.80;;;5.70;99.90;;;;;;5091015;28;20519;-70
2021/12/09 07:58:35;;;;;;;16.37;15.20;;;5.80;99.90;;;;;;5090891;28;20447;-70
2021/12/09 08:01:03;;;;;;;17.80;16.90;;;5.90;99.90;;;;;;5091136;28;21007;-69
2021/12/09 08:03:30;;;;;;;16.47;15.00;;;5.90;99.90;;;;;;5090987;28;20458;-71
2021/12/09 08:05:57;;;;;;;16.17;14.70;;;5.90;99.90;;;;;;5090835;28;20457;-73
2021/12/09 08:09:09;;;;;;;17.10;15.77;;;5.90;99.90;;;;;;5090557;28;20446;-69
2021/12/09 08:11:37;;;;;;;17.10;15.70;;;6.00;99.90;;;;;;5090082;28;20452;-69
2021/12/09 08:14:04;;;;;;;13.87;13.17;;;6.00;99.90;;;;;;5090745;28;20459;-70
2021/12/09 08:16:37;;;;;;;15.77;14.93;;;6.10;99.90;;;;;;5090621;28;20487;-70
2021/12/09 08:19:04;;;;;;;15.37;13.93;;;6.10;99.90;;;;;;5090635;28;20553;-70
2021/12/09 08:21:33;;;;;;;15.23;13.70;;;6.10;99.90;;;;;;5088760;28;20453;-70
2021/12/09 08:24:00;;;;;;;14.17;13.13;;;6.20;99.90;;;;;;5090866;28;20477;-69
2021/12/09 08:26:27;;;;;;;14.90;14.00;;;6.30;99.90;;;;;;5090309;28;20445;-70
2021/12/09 08:28:54;;;;;;;13.03;12.30;;;6.40;99.90;;;;;;5090568;28;20447;-69
2021/12/09 08:31:21;;;;;;;13.23;12.53;;;6.50;99.90;;;;;;5090273;28;20460;-70
2021/12/09 08:33:50;;;;;;;12.50;11.73;;;6.50;99.90;;;;;;5090346;28;20481;-70
2021/12/09 08:36:16;;;;;;;14.80;14.00;;;6.50;99.90;;;;;;5090382;28;20455;-70
2021/12/09 08:38:43;;;;;;;13.93;13.10;;;6.30;99.90;;;;;;5090575;28;20459;-70
2021/12/09 08:41:10;;;;;;;14.00;13.10;;;6.30;99.90;;;;;;5090496;28;20460;-70
2021/12/09 08:43:37;;;;;;;13.63;12.57;;;6.60;99.90;;;;;;5090403;28;20472;-70
2021/12/09 08:46:04;;;;;;;13.83;12.63;;;6.70;99.90;;;;;;5093306;28;20479;-69
2021/12/09 08:48:31;;;;;;;15.03;13.67;;;6.70;99.90;;;;;;5094619;28;20457;-69
2021/12/09 08:50:59;;;;;;;12.33;11.57;;;6.60;99.90;;;;;;5094462;28;20473;-71
2021/12/09 08:53:26;;;;;;;13.17;12.07;;;6.50;99.90;;;;;;5094519;28;20454;-70
2021/12/09 08:55:54;;;;;;;12.80;12.00;;;6.40;99.90;;;;;;5094384;28;20499;-70
2021/12/09 08:58:21;;;;;;;16.47;14.90;;;6.40;99.90;;;;;;5094515;28;20481;-69
2021/12/09 09:00:51;;;;;;;13.70;12.17;;;6.40;99.90;;;;;;5094044;28;20443;-69
2021/12/09 09:03:19;;;;;;;14.87;13.53;;;6.50;99.90;;;;;;5092402;28;20455;-69
2021/12/09 09:05:45;;;;;;;12.70;12.00;;;6.50;99.90;;;;;;5094704;28;20460;-70
2021/12/09 09:08:13;;;;;;;14.70;13.20;;;6.50;99.90;;;;;;5094397;28;20449;-70
2021/12/09 09:10:43;;;;;;;14.10;13.30;;;6.50;99.90;;;;;;5093235;28;20465;-69
2021/12/09 09:13:10;;;;;;;12.63;11.73;;;6.60;99.90;;;;;;5094323;28;20448;-70
2021/12/09 09:15:37;;;;;;;13.30;12.60;;;6.60;99.90;;;;;;5094305;28;20475;-70
2021/12/09 09:18:05;;;;;;;14.80;13.40;;;6.60;99.90;;;;;;5094261;28;20489;-70
2021/12/09 09:20:34;;;;;;;14.77;13.77;;;6.80;99.90;;;;;;5094276;28;20448;-69
2021/12/09 09:23:01;;;;;;;14.57;13.30;;;6.80;99.90;;;;;;5090282;28;20582;-70
2021/12/09 09:25:30;;;;;;;17.83;13.23;;;6.80;99.90;;;;;;5094324;28;20449;-69
2021/12/09 09:27:57;;;;;;;14.07;12.93;;;6.80;99.90;;;;;;5093629;28;20487;-69
2021/12/09 09:30:27;;;;;;;14.23;13.20;;;6.70;99.90;;;;;;5092885;28;20453;-70
2021/12/09 09:32:54;;;;;;;13.33;12.53;;;6.70;99.90;;;;;;5093669;28;20876;-70
2021/12/09 09:35:21;;;;;;;14.47;13.10;;;6.80;99.90;;;;;;5093777;28;20480;-70
2021/12/09 09:37:48;;;;;;;13.67;12.77;;;6.90;99.90;;;;;;5093395;28;20478;-70
2021/12/09 09:40:17;;;;;;;13.20;12.47;;;7.00;99.90;;;;;;5093757;28;20823;-70
2021/12/09 09:42:58;;;;;;;11.93;11.33;;;7.10;99.90;;;;;;5093643;28;20453;-70
2021/12/09 09:45:26;;;;;;;13.50;12.70;;;7.20;99.90;;;;;;5093148;28;20481;-69
2021/12/09 09:47:54;;;;;;;13.60;12.80;;;7.30;99.90;;;;;;5093479;28;20445;-69
2021/12/09 09:50:21;;;;;;;13.50;12.60;;;7.30;99.90;;;;;;5093413;28;20449;-69
2021/12/09 09:52:48;;;;;;;13.43;12.53;;;7.40;99.90;;;;;;5093538;28;20987;-68
2021/12/09 09:55:20;;;;;;;13.23;12.60;;;7.50;99.90;;;;;;5093267;28;20442;-68
2021/12/09 09:57:50;;;;;;;13.47;12.67;;;7.60;99.90;;;;;;5093206;28;20543;-69
2021/12/09 10:00:19;;;;;;;14.57;13.17;;;7.70;99.90;;;;;;5093054;28;20465;-69
2021/12/09 10:02:52;;;;;;;13.37;12.50;;;7.90;99.90;;;;;;5093103;28;20446;-69
2021/12/09 10:05:22;;;;;;;13.97;12.90;;;7.70;99.90;;;;;;5093261;28;20820;-69
2021/12/09 10:07:50;;;;;;;13.47;12.60;;;7.70;99.90;;;;;;5093363;28;20450;-69
2021/12/09 10:10:18;;;;;;;14.00;13.00;;;7.70;99.90;;;;;;5093378;28;20454;-69
2021/12/09 10:13:01;;;;;;;12.63;12.00;;;7.70;99.90;;;;;;5093144;28;20450;-69
2021/12/09 10:15:37;;;;;;;13.43;12.50;;;7.70;99.90;;;;;;5092782;28;20454;-69
2021/12/09 10:18:04;;;;;;;13.43;12.53;;;7.70;99.90;;;;;;5092634;28;20983;-70
2021/12/09 10:20:46;;;;;;;13.40;12.27;;;7.80;99.90;;;;;;5092454;28;20465;-70
2021/12/09 10:23:29;;;;;;;13.10;12.40;;;7.80;99.90;;;;;;5092821;28;20470;-69
2021/12/09 10:26:28;;;;;;;13.83;13.10;;;7.90;99.90;;;;;;5092625;28;20454;-69
2021/12/09 10:29:05;;;;;;;14.43;13.53;;;7.70;99.90;;;;;;5010398;28;20441;-70
2021/12/09 10:31:35;;;;;;;14.27;13.17;;;7.80;99.90;;;;;;5079813;28;20478;-70
2021/12/09 10:34:15;;;;;;;13.20;12.40;;;8.00;99.90;;;;;;5092868;28;20566;-69
2021/12/09 10:36:51;;;;;;;12.90;12.30;;;8.10;99.90;;;;;;5092772;28;20454;-69
2021/12/09 10:39:21;;;;;;;14.10;13.10;;;8.20;99.90;;;;;;5092908;28;20812;-69
2021/12/09 10:41:49;;;;;;;13.80;13.20;;;8.00;99.90;;;;;;5095978;28;20446;-70
2021/12/09 10:44:20;;;;;;;15.33;13.97;;;8.00;99.90;;;;;;5101817;28;20439;-69
2021/12/09 10:46:53;;;;;;;13.50;12.70;;;8.00;99.90;;;;;;5103355;28;20481;-70
2021/12/09 10:49:22;;;;;;;13.77;12.87;;;8.10;99.90;;;;;;5108819;28;20439;-70
2021/12/09 10:52:00;;;;;;;14.37;13.37;;;8.30;99.90;;;;;;5108864;28;20454;-70
2021/12/09 10:54:36;;;;;;;14.70;13.80;;;8.30;99.90;;;;;;5100033;28;20485;-70
2021/12/09 10:57:31;;;;;;;14.37;13.57;;;8.20;99.90;;;;;;5092161;28;20449;-71
2021/12/09 11:00:16;;;;;;;14.67;13.57;;;8.10;99.90;;;;;;5074677;28;20450;-70
2021/12/09 11:03:01;;;;;;;13.20;12.53;;;8.20;99.90;;;;;;5092034;28;20445;-70
2021/12/09 11:05:29;;;;;;;12.40;11.80;;;8.20;99.90;;;;;;5091888;28;20958;-70
2021/12/09 11:08:12;;;;;;;12.90;12.40;;;8.30;99.90;;;;;;5091232;28;20449;-69
2021/12/09 11:10:45;;;;;;;11.97;11.40;;;8.40;99.90;;;;;;5091908;28;20450;-70
2021/12/09 11:13:12;;;;;;;14.10;13.20;;;8.40;99.90;;;;;;5092158;28;20514;-69
2021/12/09 11:15:53;;;;;;;12.63;12.00;;;8.70;99.90;;;;;;5091731;28;20450;-69
2021/12/09 11:18:32;;;;;;;13.87;13.07;;;8.80;99.90;;;;;;5090857;28;20486;-70
2021/12/09 11:20:59;;;;;;;13.13;12.57;;;8.90;99.90;;;;;;5091680;28;20450;-70
2021/12/09 11:23:29;;;;;;;11.90;11.20;;;8.90;99.90;;;;;;5091498;28;20492;-70
2021/12/09 11:25:59;;;;;;;12.50;11.80;;;9.00;99.90;;;;;;5091366;28;20945;-70
2021/12/09 11:28:27;;;;;;;13.17;12.47;;;9.20;99.90;;;;;;5091598;28;20450;-70
2021/12/09 11:31:13;;;;;;;12.27;11.67;;;9.30;99.90;;;;;;5091499;28;20507;-70
2021/12/09 11:33:44;;;;;;;13.13;12.27;;;9.50;99.90;;;;;;5091717;28;20454;-70
2021/12/09 11:36:16;;;;;;;13.20;12.40;;;9.50;99.90;;;;;;5091551;28;20468;-70
2021/12/09 11:39:08;;;;;;;12.53;11.93;;;9.30;99.90;;;;;;5091343;28;20579;-70
2021/12/09 11:41:39;;;;;;;12.03;11.33;;;9.00;99.90;;;;;;5091188;28;20446;-70
2021/12/09 11:44:08;;;;;;;12.40;11.80;;;8.90;99.90;;;;;;5091373;28;20927;-70
2021/12/09 11:46:38;;;;;;;14.13;13.20;;;9.00;99.90;;;;;;5091104;28;20500;-70
2021/12/09 11:49:05;;;;;;;12.87;12.27;;;9.20;99.90;;;;;;5091052;28;20449;-70
2021/12/09 11:51:32;;;;;;;12.33;11.73;;;9.40;99.90;;;;;;5091123;28;20520;-70
2021/12/09 11:54:00;;;;;;;13.60;12.80;;;9.20;99.90;;;;;;5091372;28;20544;-70
2021/12/09 11:56:34;;;;;;;12.50;11.90;;;8.90;99.90;;;;;;5091004;28;20904;-70
2021/12/09 11:59:26;;;;;;;11.97;11.27;;;9.10;99.90;;;;;;5090929;28;20486;-70
2021/12/09 12:07:59;;;;;;;11.50;10.77;;;9.70;99.90;;;;;;5091186;28;20458;-71
2021/12/09 12:13:40;;;;;;;11.70;11.10;;;11.20;99.90;;;;;;5090879;28;20433;-71
2021/12/09 12:16:32;;;;;;;12.50;11.77;;;11.10;99.90;;;;;;5090742;28;20459;-71
2021/12/09 12:19:06;;;;;;;13.80;11.70;;;10.20;99.90;;;;;;5090040;28;20520;-71
2021/12/09 12:25:03;;;;;;;11.43;10.53;;;9.40;99.90;;;;;;5090803;28;20442;-70
2021/12/09 12:27:52;;;;;;;12.80;11.70;;;9.30;99.90;;;;;;5090918;28;20545;-70
2021/12/09 12:39:07;;;;;;;12.67;11.97;;;9.00;99.90;;;;;;5032749;28;20489;-70
2021/12/09 12:41:33;;;;;;;11.63;10.93;;;8.80;99.90;;;;;;5090682;28;20466;-70
2021/12/09 12:44:06;;;;;;;13.30;12.20;;;8.50;99.90;;;;;;5090744;28;20853;-70
2021/12/09 12:46:55;;;;;;;13.67;12.30;;;8.40;99.90;;;;;;5090464;28;21084;-70
2021/12/09 12:49:32;;;;;;;12.10;11.40;;;8.40;99.90;;;;;;5090657;28;20446;-70
2021/12/09 12:52:06;;;;;;;12.43;11.63;;;8.40;99.90;;;;;;5090640;28;20453;-71
2021/12/09 12:54:50;;;;;;;16.13;14.80;;;8.50;99.90;;;;;;5090579;28;20446;-70
2021/12/09 12:57:33;;;;;;;14.23;12.93;;;8.70;99.90;;;;;;5090598;28;20541;-71
2021/12/09 13:00:12;;;;;;;12.13;11.43;;;8.80;99.90;;;;;;5090758;28;20455;-71
2021/12/09 13:05:43;;;;;;;12.07;11.30;;;8.80;99.90;;;;;;5090152;28;20426;-72
2021/12/09 13:14:01;;;;;;;11.37;10.47;;;8.70;99.90;;;;;;5064459;28;20442;-71
2021/12/09 13:16:43;;;;;;;11.43;10.63;;;8.70;99.90;;;;;;5090519;28;20454;-71
2021/12/09 13:19:33;;;;;;;15.17;14.20;;;8.50;99.90;;;;;;5090342;28;20687;-71